Time;durP1;ratioP1;P1;durP2;ratioP2;P2;SDS_P1;SDS_P2;PMS_P1;PMS_P2;Temp;Humidity;BMP_temperature;BMP_pressure;BME280_temperature;BME280_humidity;BME280_pressure;Samples;Min_cycle;Max_cycle;Signal;HPM_P1;HPM_P2
2022/12/31 00:00:30;;;;;;;8.50;5.00;;;11.40;99.90;;;;;;5069290;28;21183;-67
2022/12/31 00:02:55;;;;;;;9.27;5.13;;;11.40;99.90;;;;;;5049861;28;20562;-66
2022/12/31 00:05:21;;;;;;;9.88;5.75;;;11.40;99.90;;;;;;5069431;28;20044;-67
2022/12/31 00:07:47;;;;;;;7.82;4.90;;;11.40;99.90;;;;;;5061253;28;20041;-66
2022/12/31 00:10:13;;;;;;;9.25;5.18;;;11.30;99.90;;;;;;5079242;28;20041;-66
2022/12/31 00:12:39;;;;;;;8.88;5.25;;;11.30;99.90;;;;;;5068258;28;20051;-66
2022/12/31 00:15:05;;;;;;;8.23;4.72;;;11.30;99.90;;;;;;5068454;28;20068;-68
2022/12/31 00:17:31;;;;;;;8.98;5.20;;;11.30;99.90;;;;;;5068251;28;20074;-67
2022/12/31 00:19:57;;;;;;;11.98;5.65;;;11.30;99.90;;;;;;5068415;28;20048;-68
2022/12/31 00:22:22;;;;;;;11.45;5.45;;;11.30;99.90;;;;;;5069219;28;20044;-69
2022/12/31 00:24:48;;;;;;;8.52;4.90;;;11.30;99.90;;;;;;5049575;28;20044;-66
2022/12/31 00:27:15;;;;;;;10.77;5.00;;;11.30;99.90;;;;;;5066057;28;20043;-68
2022/12/31 00:29:40;;;;;;;9.70;5.25;;;11.30;99.90;;;;;;5066450;28;20051;-67
2022/12/31 00:32:06;;;;;;;9.13;5.10;;;11.30;99.90;;;;;;5068178;28;20041;-66
2022/12/31 00:34:32;;;;;;;7.57;5.00;;;11.30;99.90;;;;;;5067010;28;20506;-67
2022/12/31 00:36:57;;;;;;;7.53;5.20;;;11.30;99.90;;;;;;5069299;28;20045;-67
2022/12/31 00:39:23;;;;;;;9.27;4.80;;;11.40;99.90;;;;;;5066406;28;20064;-69
2022/12/31 00:41:49;;;;;;;11.73;5.30;;;11.30;99.90;;;;;;5065966;28;20506;-66
2022/12/31 00:44:14;;;;;;;10.07;4.85;;;11.40;99.90;;;;;;5049589;28;20048;-67
2022/12/31 00:46:40;;;;;;;7.38;4.72;;;11.40;99.90;;;;;;5066227;28;20048;-66
2022/12/31 00:49:06;;;;;;;8.50;4.88;;;11.40;99.90;;;;;;5068483;28;20076;-66
2022/12/31 00:51:32;;;;;;;5.93;4.57;;;11.40;99.90;;;;;;5048107;28;20112;-66
2022/12/31 00:53:58;;;;;;;6.70;4.65;;;11.40;99.90;;;;;;5052113;28;20037;-68
2022/12/31 00:56:27;;;;;;;8.10;4.35;;;11.40;99.90;;;;;;5067146;28;20111;-67
2022/12/31 00:58:53;;;;;;;10.90;4.35;;;11.40;99.90;;;;;;5068506;28;20036;-67
2022/12/31 01:01:18;;;;;;;8.45;4.30;;;11.40;99.90;;;;;;5066053;28;20043;-66
2022/12/31 01:03:45;;;;;;;8.73;4.28;;;11.40;99.90;;;;;;5067619;28;20202;-68
2022/12/31 01:06:11;;;;;;;6.18;3.90;;;11.40;99.90;;;;;;5068916;28;20040;-68
2022/12/31 01:08:37;;;;;;;5.97;4.07;;;11.40;99.90;;;;;;5064810;28;20040;-68
2022/12/31 01:11:19;;;;;;;6.40;3.90;;;11.40;99.90;;;;;;5060091;28;20036;-68
2022/12/31 01:13:54;;;;;;;8.50;3.60;;;11.40;99.90;;;;;;5063833;28;20048;-67
2022/12/31 01:16:27;;;;;;;4.53;3.10;;;11.40;99.90;;;;;;5059421;28;20045;-68
2022/12/31 01:18:53;;;;;;;7.38;3.17;;;11.40;99.90;;;;;;5063047;28;20094;-67
2022/12/31 01:21:20;;;;;;;8.77;3.35;;;11.40;99.90;;;;;;5061646;28;20037;-65
2022/12/31 01:23:46;;;;;;;5.60;3.10;;;11.40;99.90;;;;;;5076134;28;20037;-66
2022/12/31 01:26:13;;;;;;;6.03;3.47;;;11.30;99.90;;;;;;5065877;28;20041;-66
2022/12/31 01:28:39;;;;;;;5.75;3.20;;;11.30;99.90;;;;;;5074771;28;20036;-67
2022/12/31 01:31:06;;;;;;;5.95;4.13;;;11.30;99.90;;;;;;5075078;28;20036;-67
2022/12/31 01:33:32;;;;;;;4.45;2.80;;;11.30;99.90;;;;;;5069846;28;20047;-68
2022/12/31 01:36:10;;;;;;;5.43;2.92;;;11.30;99.90;;;;;;5067026;28;20032;-66
2022/12/31 01:38:36;;;;;;;6.82;3.20;;;11.30;99.90;;;;;;5063903;28;20032;-67
2022/12/31 01:41:02;;;;;;;5.50;3.40;;;11.20;99.90;;;;;;5077577;28;20093;-66
2022/12/31 01:43:45;;;;;;;5.28;3.00;;;11.20;99.90;;;;;;5064494;28;20037;-67
2022/12/31 01:46:17;;;;;;;4.82;3.25;;;11.20;99.90;;;;;;5049818;28;20047;-66
2022/12/31 01:48:48;;;;;;;8.57;3.05;;;11.20;99.90;;;;;;5064927;28;20135;-66
2022/12/31 01:51:14;;;;;;;4.05;2.92;;;11.20;99.90;;;;;;5066945;28;20056;-68
2022/12/31 01:53:41;;;;;;;6.53;2.72;;;11.20;99.90;;;;;;5062268;28;20078;-68
2022/12/31 01:56:07;;;;;;;4.30;2.72;;;11.20;99.90;;;;;;5063076;28;20048;-68
2022/12/31 01:58:43;;;;;;;5.18;2.95;;;11.20;99.90;;;;;;5069642;28;20040;-67
2022/12/31 02:01:10;;;;;;;5.20;3.15;;;11.10;99.90;;;;;;5060842;28;20040;-67
2022/12/31 02:03:37;;;;;;;4.32;2.47;;;11.10;99.90;;;;;;5062528;28;20045;-68
2022/12/31 02:06:06;;;;;;;6.28;2.70;;;11.10;99.90;;;;;;5064154;28;20040;-66
2022/12/31 02:08:32;;;;;;;5.60;2.50;;;11.10;99.90;;;;;;5068394;28;20091;-67
2022/12/31 02:10:58;;;;;;;3.55;2.20;;;11.00;99.90;;;;;;5053543;28;20139;-67
2022/12/31 02:13:24;;;;;;;6.38;2.05;;;11.10;99.90;;;;;;5069387;28;20205;-68
2022/12/31 02:16:03;;;;;;;6.53;2.30;;;11.00;99.90;;;;;;5069532;28;20037;-68
2022/12/31 02:18:45;;;;;;;4.47;1.70;;;11.00;99.90;;;;;;5059561;28;20111;-67
2022/12/31 02:21:29;;;;;;;5.60;1.35;;;11.00;99.90;;;;;;5066687;28;20036;-67
2022/12/31 02:24:13;;;;;;;2.03;0.90;;;11.00;99.90;;;;;;5069367;28;20123;-67
2022/12/31 02:26:57;;;;;;;3.33;0.88;;;11.00;99.90;;;;;;5067681;28;20128;-67
2022/12/31 02:29:54;;;;;;;4.20;1.40;;;10.90;99.90;;;;;;5062714;28;20037;-66
2022/12/31 02:32:35;;;;;;;2.25;0.60;;;10.90;99.90;;;;;;5050973;28;20067;-66
2022/12/31 02:35:17;;;;;;;1.48;0.55;;;10.80;99.90;;;;;;5068120;28;20391;-67
2022/12/31 02:37:48;;;;;;;6.72;1.27;;;10.80;99.90;;;;;;5067255;28;20491;-66
2022/12/31 02:40:17;;;;;;;2.45;0.60;;;10.80;99.90;;;;;;5049420;28;20052;-66
2022/12/31 02:42:43;;;;;;;1.80;0.60;;;10.70;99.90;;;;;;5066325;28;20105;-66
2022/12/31 02:45:15;;;;;;;2.30;0.70;;;10.70;99.90;;;;;;5068657;28;20052;-67
2022/12/31 02:47:50;;;;;;;2.30;0.60;;;10.70;99.90;;;;;;5061120;28;20487;-67
2022/12/31 02:50:26;;;;;;;2.38;0.80;;;10.70;99.90;;;;;;5068249;28;20048;-66
2022/12/31 02:53:00;;;;;;;3.25;0.70;;;10.70;99.90;;;;;;5064119;28;20075;-68
2022/12/31 02:55:58;;;;;;;5.25;0.80;;;10.60;99.90;;;;;;5071108;28;20395;-67
2022/12/31 03:06:55;;;;;;;4.47;1.00;;;10.60;99.90;;;;;;5008563;28;20084;-67
2022/12/31 03:09:20;;;;;;;3.50;1.15;;;10.60;99.90;;;;;;5010782;28;20483;-67
2022/12/31 03:14:30;;;;;;;2.70;1.40;;;10.60;99.90;;;;;;5010109;28;20080;-66
2022/12/31 03:16:56;;;;;;;3.40;1.50;;;10.60;99.90;;;;;;5007825;28;20068;-66
2022/12/31 03:22:26;;;;;;;3.28;2.00;;;10.60;99.90;;;;;;5007055;28;20048;-66
2022/12/31 03:27:36;;;;;;;6.15;1.70;;;10.70;99.90;;;;;;5010324;28;20134;-67
2022/12/31 03:30:03;;;;;;;4.13;2.10;;;10.60;99.90;;;;;;5009808;28;20048;-66
2022/12/31 03:32:29;;;;;;;4.60;2.47;;;10.70;99.90;;;;;;5002208;28;20041;-67
2022/12/31 03:34:54;;;;;;;4.45;2.22;;;10.70;99.90;;;;;;5021045;28;20049;-69
2022/12/31 03:37:20;;;;;;;8.68;2.88;;;10.70;99.90;;;;;;5061648;28;20036;-68
2022/12/31 03:39:46;;;;;;;4.30;2.20;;;10.70;99.90;;;;;;5085204;28;20045;-68
2022/12/31 03:42:11;;;;;;;6.03;2.50;;;10.70;99.90;;;;;;5062847;28;20055;-67
2022/12/31 03:44:37;;;;;;;7.57;2.60;;;10.70;99.90;;;;;;5067113;28;20538;-69
2022/12/31 03:47:03;;;;;;;5.40;2.95;;;10.70;99.90;;;;;;5062983;28;20072;-67
2022/12/31 03:49:28;;;;;;;8.90;2.88;;;10.80;99.90;;;;;;5068180;28;20044;-67
2022/12/31 03:51:54;;;;;;;5.13;3.30;;;10.80;99.90;;;;;;5061684;28;20048;-67
2022/12/31 03:54:20;;;;;;;5.30;2.78;;;10.70;99.90;;;;;;5061077;28;20040;-68
2022/12/31 03:56:45;;;;;;;4.13;2.47;;;10.80;99.90;;;;;;5064785;28;20032;-66
2022/12/31 03:59:11;;;;;;;4.50;2.30;;;10.80;99.90;;;;;;5065006;28;20514;-67
2022/12/31 04:01:37;;;;;;;4.78;2.50;;;10.80;99.90;;;;;;5066242;28;20055;-69
2022/12/31 04:04:02;;;;;;;5.05;2.28;;;10.80;99.90;;;;;;5057915;28;20036;-68
2022/12/31 04:06:28;;;;;;;5.13;2.50;;;10.80;99.90;;;;;;5057442;28;20032;-66
2022/12/31 04:08:54;;;;;;;5.55;2.38;;;10.80;99.90;;;;;;5062200;28;20068;-67
2022/12/31 04:11:19;;;;;;;3.38;2.22;;;10.80;99.90;;;;;;5063307;28;20048;-67
2022/12/31 04:13:45;;;;;;;5.57;2.13;;;10.80;99.90;;;;;;5064115;28;20043;-67
2022/12/31 04:16:10;;;;;;;4.40;2.10;;;10.70;99.90;;;;;;5060171;28;20032;-67
2022/12/31 04:18:36;;;;;;;4.45;1.85;;;10.80;99.90;;;;;;5060963;28;20044;-66
2022/12/31 04:21:03;;;;;;;3.85;1.52;;;10.80;99.90;;;;;;5057590;28;20040;-68
2022/12/31 04:23:29;;;;;;;5.32;1.70;;;10.80;99.90;;;;;;5059277;28;20399;-68
2022/12/31 04:25:54;;;;;;;3.97;1.63;;;10.80;99.90;;;;;;5065451;28;20043;-68
2022/12/31 04:28:20;;;;;;;4.50;1.50;;;10.70;99.90;;;;;;5063505;28;20059;-66
2022/12/31 04:30:46;;;;;;;5.95;1.90;;;10.70;99.90;;;;;;5061902;28;20040;-66
2022/12/31 04:33:11;;;;;;;6.43;1.50;;;10.70;99.90;;;;;;5061454;28;20041;-66
2022/12/31 04:35:37;;;;;;;7.60;1.60;;;10.70;99.90;;;;;;5059174;28;20811;-66
2022/12/31 04:38:03;;;;;;;4.05;1.50;;;10.70;99.90;;;;;;5060332;28;20103;-67
2022/12/31 04:40:28;;;;;;;4.75;1.45;;;10.70;99.90;;;;;;5066562;28;20106;-67
2022/12/31 04:42:54;;;;;;;3.45;1.92;;;10.70;99.90;;;;;;5065500;28;20407;-67
2022/12/31 04:45:20;;;;;;;7.32;1.70;;;10.70;99.90;;;;;;5068310;28;20044;-67
2022/12/31 04:47:45;;;;;;;6.18;2.00;;;10.70;99.90;;;;;;5062701;28;20044;-67
2022/12/31 04:50:11;;;;;;;4.15;2.03;;;10.70;99.90;;;;;;5062788;28;20110;-68
2022/12/31 04:52:36;;;;;;;6.65;1.92;;;10.70;99.90;;;;;;5051053;28;20086;-68
2022/12/31 04:55:02;;;;;;;8.77;2.42;;;10.70;99.90;;;;;;5043182;28;20059;-67
2022/12/31 04:57:28;;;;;;;6.05;2.13;;;10.70;99.90;;;;;;5059375;28;20139;-67
2022/12/31 04:59:54;;;;;;;4.53;1.45;;;10.70;99.90;;;;;;5060771;28;20040;-66
2022/12/31 05:02:19;;;;;;;5.70;1.52;;;10.70;99.90;;;;;;5044022;28;20135;-66
2022/12/31 05:04:45;;;;;;;6.45;1.70;;;10.70;99.90;;;;;;5058342;28;20091;-68
2022/12/31 05:07:10;;;;;;;5.57;1.70;;;10.70;99.90;;;;;;5064417;28;20118;-67
2022/12/31 05:09:37;;;;;;;4.47;1.80;;;10.70;99.90;;;;;;5068921;28;20052;-68
2022/12/31 05:12:03;;;;;;;4.25;1.65;;;10.70;99.90;;;;;;5067839;28;20036;-66
2022/12/31 05:14:28;;;;;;;6.57;1.50;;;10.70;99.90;;;;;;5071676;28;20078;-66
2022/12/31 05:16:54;;;;;;;4.55;1.45;;;10.60;99.90;;;;;;5064250;28;20106;-67
2022/12/31 05:19:20;;;;;;;5.20;1.75;;;10.70;99.90;;;;;;5064062;28;20433;-67
2022/12/31 05:22:27;;;;;;;6.78;1.90;;;10.70;99.90;;;;;;5069319;28;20399;-67
2022/12/31 05:24:31;;;;;;;4.30;1.67;;;10.60;99.90;;;;;;5069569;28;20044;-67
2022/12/31 05:26:57;;;;;;;2.72;1.67;;;10.60;99.90;;;;;;5067545;28;20057;-69
2022/12/31 05:29:22;;;;;;;4.03;2.30;;;10.70;99.90;;;;;;5067906;28;20090;-68
2022/12/31 05:31:48;;;;;;;5.05;2.22;;;10.70;99.90;;;;;;5067216;28;20050;-67
2022/12/31 05:34:13;;;;;;;4.65;2.17;;;10.70;99.90;;;;;;5065083;28;20127;-66
2022/12/31 05:36:39;;;;;;;4.00;2.72;;;10.70;99.90;;;;;;5066216;28;20060;-67
2022/12/31 05:39:05;;;;;;;4.50;3.20;;;10.70;99.90;;;;;;5069397;28;20048;-67
2022/12/31 05:41:30;;;;;;;4.88;2.72;;;10.70;99.90;;;;;;5065015;28;20044;-66
2022/12/31 05:43:56;;;;;;;4.93;2.60;;;10.70;99.90;;;;;;5066075;28;20376;-67
2022/12/31 05:46:21;;;;;;;4.47;2.10;;;10.70;99.90;;;;;;5068432;28;20048;-66
2022/12/31 05:48:47;;;;;;;2.90;2.30;;;10.70;99.90;;;;;;5069953;28;20079;-66
2022/12/31 05:51:13;;;;;;;4.43;2.15;;;10.70;99.90;;;;;;5064427;28;20106;-66
2022/12/31 05:53:38;;;;;;;3.88;2.13;;;10.70;99.90;;;;;;5066847;28;20045;-67
2022/12/31 05:56:04;;;;;;;4.88;2.00;;;10.70;99.90;;;;;;5087590;28;20064;-67
2022/12/31 05:58:30;;;;;;;2.75;1.90;;;10.60;99.90;;;;;;5062780;28;20319;-67
2022/12/31 06:00:55;;;;;;;4.13;1.70;;;10.60;99.90;;;;;;5059216;28;20132;-66
2022/12/31 06:03:21;;;;;;;5.07;1.90;;;10.70;99.90;;;;;;5077381;28;20464;-66
2022/12/31 06:05:47;;;;;;;5.85;1.90;;;10.60;99.90;;;;;;5062618;28;20028;-67
2022/12/31 06:08:12;;;;;;;4.20;1.92;;;10.60;99.90;;;;;;5058061;28;20047;-69
2022/12/31 06:10:39;;;;;;;3.97;1.90;;;10.60;99.90;;;;;;5051907;28;20033;-66
2022/12/31 06:13:04;;;;;;;4.25;2.08;;;10.60;99.90;;;;;;5057544;28;20136;-67
2022/12/31 06:15:30;;;;;;;3.88;2.00;;;10.50;99.90;;;;;;5069429;28;20128;-68
2022/12/31 06:17:56;;;;;;;4.07;2.00;;;10.60;99.90;;;;;;5065813;28;20048;-67
2022/12/31 06:20:21;;;;;;;3.08;2.00;;;10.50;99.90;;;;;;5068906;28;20044;-67
2022/12/31 06:22:47;;;;;;;3.08;1.90;;;10.50;99.90;;;;;;5069974;28;20141;-66
2022/12/31 06:25:13;;;;;;;3.60;2.10;;;10.50;99.90;;;;;;5075883;28;20040;-67
2022/12/31 06:27:38;;;;;;;3.25;2.30;;;10.50;99.90;;;;;;5053164;28;20051;-66
2022/12/31 06:30:04;;;;;;;3.80;2.25;;;10.50;99.90;;;;;;5060153;28;20120;-68
2022/12/31 06:32:30;;;;;;;2.72;2.20;;;10.50;99.90;;;;;;5065529;28;20087;-66
2022/12/31 06:34:56;;;;;;;3.03;2.03;;;10.40;99.90;;;;;;5066266;28;20455;-68
2022/12/31 06:37:21;;;;;;;4.80;2.22;;;10.40;99.90;;;;;;5070274;28;20111;-67
2022/12/31 06:39:47;;;;;;;2.58;1.85;;;10.40;99.90;;;;;;5061585;28;20044;-66
2022/12/31 06:42:13;;;;;;;2.45;1.88;;;10.40;99.90;;;;;;5066115;28;20039;-68
2022/12/31 06:44:38;;;;;;;3.97;2.20;;;10.40;99.90;;;;;;5063695;28;20035;-66
2022/12/31 06:47:04;;;;;;;2.67;1.85;;;10.40;99.90;;;;;;5068473;28;20051;-66
2022/12/31 06:49:30;;;;;;;5.10;2.20;;;10.40;99.90;;;;;;5044677;28;20060;-67
2022/12/31 06:51:55;;;;;;;2.88;1.83;;;10.40;99.90;;;;;;5047595;28;20419;-67
2022/12/31 06:54:21;;;;;;;3.50;2.00;;;10.40;99.90;;;;;;5064484;28;20450;-68
2022/12/31 06:56:47;;;;;;;2.72;2.17;;;10.40;99.90;;;;;;5065012;28;20032;-66
2022/12/31 06:59:27;;;;;;;4.72;1.90;;;10.40;99.90;;;;;;5041332;28;20143;-66
2022/12/31 07:02:30;;;;;;;2.17;1.85;;;10.40;99.90;;;;;;5068366;28;20040;-66
2022/12/31 07:05:23;;;;;;;2.80;1.80;;;10.40;99.90;;;;;;5066903;28;20399;-66
2022/12/31 07:07:57;;;;;;;2.78;2.10;;;10.50;99.90;;;;;;5068340;28;20048;-66
2022/12/31 07:10:41;;;;;;;3.20;1.90;;;10.50;99.90;;;;;;5061996;28;20040;-68
2022/12/31 07:13:10;;;;;;;3.25;2.20;;;10.50;99.90;;;;;;5063163;28;20856;-67
2022/12/31 07:15:40;;;;;;;2.38;2.17;;;10.50;99.90;;;;;;5074058;28;20041;-67
2022/12/31 07:18:29;;;;;;;2.72;2.38;;;10.50;99.90;;;;;;5065950;28;20048;-66
2022/12/31 07:20:55;;;;;;;3.42;2.47;;;10.50;99.90;;;;;;5009681;28;20041;-66
2022/12/31 07:23:21;;;;;;;4.25;2.60;;;10.50;99.90;;;;;;5007700;28;20528;-66
2022/12/31 07:26:09;;;;;;;2.60;2.40;;;10.50;99.90;;;;;;5008503;28;21013;-66
2022/12/31 07:29:04;;;;;;;2.58;2.28;;;10.50;99.90;;;;;;5005048;28;20550;-67
2022/12/31 07:31:32;;;;;;;2.00;1.80;;;10.50;99.90;;;;;;4957237;28;20193;-68
2022/12/31 07:34:13;;;;;;;3.00;2.28;;;10.50;99.90;;;;;;4948705;28;20529;-67
2022/12/31 07:36:54;;;;;;;2.20;2.00;;;10.60;99.90;;;;;;4948935;28;20136;-67
2022/12/31 07:39:30;;;;;;;2.10;1.90;;;10.60;99.90;;;;;;4947912;28;20465;-66
2022/12/31 07:42:01;;;;;;;2.28;2.08;;;10.60;99.90;;;;;;4967495;28;20090;-68
2022/12/31 07:44:53;;;;;;;2.40;2.20;;;10.60;99.90;;;;;;4938315;28;20567;-67
2022/12/31 07:47:24;;;;;;;2.63;2.00;;;10.60;99.90;;;;;;4950818;28;20077;-66
2022/12/31 07:49:51;;;;;;;2.92;2.38;;;10.70;99.90;;;;;;4935464;28;20306;-68
2022/12/31 07:52:18;;;;;;;2.70;2.50;;;10.70;99.90;;;;;;4951677;28;20731;-67
2022/12/31 07:54:43;;;;;;;2.92;2.60;;;10.70;99.90;;;;;;4949988;28;20054;-66
2022/12/31 07:57:12;;;;;;;3.60;2.63;;;10.70;99.90;;;;;;4955242;28;20053;-66
2022/12/31 08:00:02;;;;;;;3.97;3.20;;;10.70;99.90;;;;;;4989304;28;20116;-68
2022/12/31 08:03:00;;;;;;;3.30;3.00;;;10.70;99.90;;;;;;4990352;28;20088;-67
2022/12/31 08:05:32;;;;;;;3.30;3.00;;;10.80;99.90;;;;;;4984194;28;20057;-66
2022/12/31 08:08:32;;;;;;;3.63;3.13;;;10.80;99.90;;;;;;5004552;28;20052;-67
2022/12/31 08:11:26;;;;;;;3.30;2.92;;;10.80;99.90;;;;;;5049444;28;20072;-66
2022/12/31 08:13:55;;;;;;;5.25;3.20;;;10.80;99.90;;;;;;5059209;28;20069;-68
2022/12/31 08:16:21;;;;;;;4.55;3.28;;;10.90;99.90;;;;;;5068121;28;20049;-67
2022/12/31 08:18:47;;;;;;;3.45;3.15;;;10.90;99.90;;;;;;5065740;28;20426;-66
2022/12/31 08:21:36;;;;;;;3.78;3.08;;;10.90;99.90;;;;;;5067249;28;20050;-68
2022/12/31 08:24:43;;;;;;;3.58;2.70;;;10.90;99.90;;;;;;5063815;28;20102;-68
2022/12/31 08:27:20;;;;;;;3.20;2.90;;;11.10;99.90;;;;;;5011050;28;20065;-68
2022/12/31 08:30:14;;;;;;;3.22;2.92;;;11.10;99.90;;;;;;5010825;28;20088;-66
2022/12/31 08:32:43;;;;;;;3.90;3.50;;;11.20;99.90;;;;;;5010872;28;20141;-67
2022/12/31 08:35:22;;;;;;;4.40;3.63;;;11.30;99.90;;;;;;5020619;28;20562;-67
2022/12/31 08:38:15;;;;;;;4.18;3.78;;;11.40;99.90;;;;;;5014957;28;20047;-67
2022/12/31 08:40:57;;;;;;;4.30;3.90;;;11.50;99.90;;;;;;5004760;28;20128;-67
2022/12/31 08:43:48;;;;;;;4.73;4.17;;;11.60;99.90;;;;;;5010606;28;20392;-66
2022/12/31 08:46:29;;;;;;;4.93;4.43;;;11.70;99.90;;;;;;5002885;28;20072;-65
2022/12/31 08:48:55;;;;;;;5.25;4.75;;;11.70;99.90;;;;;;5015362;28;20064;-67
2022/12/31 08:51:24;;;;;;;6.60;4.47;;;11.80;99.90;;;;;;5003239;28;20100;-68
2022/12/31 08:53:50;;;;;;;6.63;4.82;;;11.80;99.90;;;;;;5001749;28;20041;-67
2022/12/31 08:56:28;;;;;;;5.10;4.60;;;11.90;99.90;;;;;;5007730;28;20037;-68
2022/12/31 08:59:06;;;;;;;4.55;4.07;;;11.90;99.90;;;;;;5027989;28;20049;-67
2022/12/31 09:02:02;;;;;;;4.20;3.75;;;12.00;99.90;;;;;;5064020;28;20037;-67
2022/12/31 09:04:55;;;;;;;3.65;3.20;;;12.00;99.90;;;;;;5008538;28;20131;-68
2022/12/31 09:07:51;;;;;;;3.67;2.65;;;12.10;99.90;;;;;;5020300;28;20052;-67
2022/12/31 09:10:23;;;;;;;4.28;2.35;;;12.10;99.90;;;;;;4988868;28;20053;-66
2022/12/31 09:13:08;;;;;;;3.25;2.10;;;12.20;99.90;;;;;;5005924;28;20386;-67
2022/12/31 09:15:51;;;;;;;3.40;2.28;;;12.20;99.90;;;;;;5007927;28;20128;-66
2022/12/31 09:18:17;;;;;;;2.20;1.50;;;12.20;99.90;;;;;;5010108;28;20064;-67
2022/12/31 09:20:43;;;;;;;3.95;1.38;;;12.20;99.90;;;;;;5026813;28;20033;-66
2022/12/31 09:23:10;;;;;;;1.73;1.05;;;12.30;99.90;;;;;;5008829;28;20058;-68
2022/12/31 09:25:50;;;;;;;2.33;1.20;;;12.30;99.90;;;;;;5003475;28;20508;-67
2022/12/31 09:28:36;;;;;;;1.65;0.90;;;12.30;99.90;;;;;;5007478;28;20049;-66
2022/12/31 09:31:24;;;;;;;0.98;0.70;;;12.30;99.90;;;;;;5007235;28;20053;-68
2022/12/31 09:33:58;;;;;;;1.38;0.77;;;12.30;99.90;;;;;;5008697;28;20038;-67
2022/12/31 09:36:37;;;;;;;0.85;0.70;;;12.30;99.90;;;;;;5007898;28;20154;-67
2022/12/31 09:39:11;;;;;;;1.67;0.90;;;12.40;99.90;;;;;;5011233;28;20088;-67
2022/12/31 09:42:11;;;;;;;1.58;1.00;;;12.40;99.90;;;;;;5035127;28;20064;-67
2022/12/31 09:45:10;;;;;;;1.52;0.80;;;12.40;99.90;;;;;;5067969;28;20398;-66
2022/12/31 09:47:54;;;;;;;2.25;1.20;;;12.50;99.90;;;;;;5064211;28;20036;-67
2022/12/31 09:50:51;;;;;;;2.13;0.80;;;12.60;99.90;;;;;;5065735;28;20056;-67
2022/12/31 09:53:35;;;;;;;3.40;1.42;;;12.60;99.90;;;;;;5065836;28;20040;-67
2022/12/31 09:56:10;;;;;;;3.00;0.82;;;12.70;99.90;;;;;;5069936;28;20041;-66
2022/12/31 09:58:59;;;;;;;1.98;0.75;;;12.80;99.90;;;;;;5070016;28;20036;-67
2022/12/31 10:01:36;;;;;;;0.70;0.60;;;12.80;99.90;;;;;;5069839;28;20085;-67
2022/12/31 10:04:20;;;;;;;2.50;0.80;;;12.90;99.90;;;;;;5069912;28;20035;-69
2022/12/31 10:06:58;;;;;;;1.50;0.60;;;12.90;99.90;;;;;;5067137;28;20451;-67
2022/12/31 10:09:45;;;;;;;3.10;0.65;;;12.90;99.90;;;;;;5065525;28;20103;-67
2022/12/31 10:12:23;;;;;;;2.13;0.68;;;13.00;99.90;;;;;;5061775;28;20059;-67
2022/12/31 10:15:36;;;;;;;2.08;0.60;;;13.10;99.90;;;;;;5070365;28;20036;-68
2022/12/31 10:18:25;;;;;;;;;;;13.10;99.90;;;;;;5050288;28;20122;-67
2022/12/31 10:21:18;;;;;;;2.92;0.60;;;13.10;99.90;;;;;;4992064;28;20000;-66
2022/12/31 10:24:13;;;;;;;3.40;0.70;;;13.10;99.90;;;;;;4995022;28;20041;-67
2022/12/31 10:27:00;;;;;;;3.38;0.80;;;13.10;99.90;;;;;;5003953;28;20050;-67
2022/12/31 10:29:46;;;;;;;1.38;0.65;;;13.10;99.90;;;;;;4987058;28;20034;-67
2022/12/31 10:32:49;;;;;;;1.35;0.80;;;13.10;99.90;;;;;;4993631;28;20058;-66
2022/12/31 10:35:35;;;;;;;1.58;0.70;;;13.10;99.90;;;;;;4992286;28;20077;-68
2022/12/31 10:38:04;;;;;;;1.58;0.90;;;13.10;99.90;;;;;;4972883;28;20054;-66
2022/12/31 10:40:56;;;;;;;2.95;0.90;;;13.20;99.90;;;;;;4996118;28;20038;-67
2022/12/31 10:43:42;;;;;;;3.63;0.90;;;13.20;99.90;;;;;;4991409;28;20042;-67
2022/12/31 10:46:50;;;;;;;3.15;1.00;;;13.20;99.90;;;;;;4992830;28;20508;-66
2022/12/31 10:49:28;;;;;;;4.03;1.50;;;13.20;99.90;;;;;;4975319;28;20050;-67
2022/12/31 10:52:13;;;;;;;4.45;1.30;;;13.20;99.90;;;;;;4990515;28;20073;-68
2022/12/31 10:55:12;;;;;;;2.13;1.13;;;13.10;99.90;;;;;;4990383;28;20089;-67
2022/12/31 10:58:14;;;;;;;4.30;1.42;;;13.00;99.90;;;;;;5028893;28;20110;-67
2022/12/31 11:00:51;;;;;;;6.05;1.85;;;13.00;99.90;;;;;;5065925;28;20048;-66
2022/12/31 11:03:39;;;;;;;4.22;1.95;;;12.90;99.90;;;;;;5064312;28;20052;-66
2022/12/31 11:06:10;;;;;;;6.18;1.90;;;12.90;99.90;;;;;;5068920;28;20044;-66
2022/12/31 11:09:14;;;;;;;6.22;2.00;;;12.80;99.90;;;;;;5069523;28;20049;-66
2022/12/31 11:12:07;;;;;;;5.10;2.10;;;12.80;99.90;;;;;;5067455;28;20449;-66
2022/12/31 11:14:35;;;;;;;6.10;2.50;;;12.80;99.90;;;;;;5067797;28;20040;-66
2022/12/31 11:17:22;;;;;;;3.47;1.70;;;12.80;99.90;;;;;;5069849;28;20197;-67
2022/12/31 11:20:22;;;;;;;4.00;1.67;;;12.80;99.90;;;;;;5051330;28;20079;-64
2022/12/31 11:23:09;;;;;;;3.55;2.15;;;12.90;99.90;;;;;;5066757;28;20045;-66
2022/12/31 11:26:00;;;;;;;5.28;2.00;;;12.90;99.90;;;;;;5051423;28;20029;-65
2022/12/31 11:28:43;;;;;;;7.50;2.83;;;13.00;99.90;;;;;;5065269;28;20162;-63
2022/12/31 11:31:35;;;;;;;2.83;1.88;;;13.00;99.90;;;;;;5068567;28;20048;-62
2022/12/31 11:34:16;;;;;;;4.88;2.13;;;13.10;99.90;;;;;;5065245;28;20044;-63
2022/12/31 11:37:20;;;;;;;7.32;2.20;;;13.10;99.90;;;;;;5067264;28;20037;-64
2022/12/31 11:40:12;;;;;;;3.13;2.20;;;13.10;99.90;;;;;;5065672;28;20040;-64
2022/12/31 11:42:56;;;;;;;4.78;2.22;;;13.20;99.90;;;;;;5065801;28;20052;-62
2022/12/31 11:45:54;;;;;;;2.95;1.88;;;13.20;99.90;;;;;;5066910;28;20044;-66
2022/12/31 11:48:57;;;;;;;2.75;1.65;;;13.20;99.90;;;;;;5031750;28;20106;-67
2022/12/31 11:51:56;;;;;;;2.83;1.50;;;13.30;99.90;;;;;;5031569;28;20127;-67
2022/12/31 11:54:39;;;;;;;3.88;2.00;;;13.30;99.90;;;;;;5029843;28;20044;-67
2022/12/31 11:57:25;;;;;;;3.17;1.40;;;13.40;99.90;;;;;;5028018;28;20036;-67
2022/12/31 11:59:59;;;;;;;2.60;1.58;;;13.40;99.90;;;;;;5028410;28;20103;-66
2022/12/31 12:02:34;;;;;;;2.50;1.23;;;13.60;99.90;;;;;;5031070;28;20041;-67
2022/12/31 12:05:03;;;;;;;3.35;1.63;;;13.60;99.90;;;;;;5031652;28;20067;-67
2022/12/31 12:07:31;;;;;;;4.28;1.60;;;13.70;99.90;;;;;;5031277;28;20041;-67
2022/12/31 12:10:00;;;;;;;3.67;1.80;;;13.80;99.90;;;;;;5032175;28;20538;-67
2022/12/31 12:12:37;;;;;;;25.80;22.48;;;13.80;99.90;;;;;;5031711;28;20047;-66
2022/12/31 12:15:08;;;;;;;2.47;1.15;;;13.90;99.90;;;;;;5031458;28;20045;-68
2022/12/31 12:17:34;;;;;;;2.55;1.00;;;13.90;99.90;;;;;;5031898;28;21528;-67
2022/12/31 12:20:15;;;;;;;2.95;1.17;;;14.00;99.90;;;;;;5048591;28;20045;-67
2022/12/31 12:22:51;;;;;;;2.03;0.80;;;13.90;99.90;;;;;;5031925;28;20098;-68
2022/12/31 12:25:20;;;;;;;3.17;0.93;;;13.90;99.90;;;;;;5069582;28;20044;-67
2022/12/31 12:27:46;;;;;;;4.63;1.20;;;13.90;99.90;;;;;;5053020;28;20040;-67
2022/12/31 12:30:24;;;;;;;1.13;0.73;;;13.90;99.90;;;;;;5052616;28;20055;-67
2022/12/31 12:32:51;;;;;;;4.30;1.17;;;13.90;99.90;;;;;;5069416;28;20044;-67
2022/12/31 12:35:24;;;;;;;2.20;1.02;;;13.80;99.90;;;;;;5069395;28;20036;-67
2022/12/31 12:38:12;;;;;;;2.85;1.10;;;13.90;99.90;;;;;;5052723;28;20032;-68
2022/12/31 12:40:38;;;;;;;3.80;1.00;;;13.80;99.90;;;;;;5069118;28;20182;-68
2022/12/31 12:43:05;;;;;;;2.25;1.02;;;13.80;99.90;;;;;;5069118;28;20127;-68
2022/12/31 12:45:44;;;;;;;2.17;1.27;;;13.80;99.90;;;;;;5068946;28;20052;-68
2022/12/31 12:48:35;;;;;;;2.95;1.20;;;13.70;99.90;;;;;;5069261;28;20082;-68
2022/12/31 12:51:14;;;;;;;4.32;1.58;;;13.60;99.90;;;;;;5065276;28;20052;-67
2022/12/31 12:53:42;;;;;;;1.90;1.15;;;13.50;99.90;;;;;;5069138;28;20033;-67
2022/12/31 12:56:23;;;;;;;2.08;0.93;;;13.50;99.90;;;;;;5069166;28;20040;-67
2022/12/31 12:59:06;;;;;;;16.30;12.82;;;13.50;99.90;;;;;;5069633;28;20660;-67
2022/12/31 13:01:49;;;;;;;24.98;19.90;;;13.40;99.90;;;;;;5068915;28;20036;-68
2022/12/31 13:04:48;;;;;;;2.40;1.70;;;13.40;99.90;;;;;;5069054;28;20123;-67
2022/12/31 13:07:35;;;;;;;1.55;1.00;;;13.40;99.90;;;;;;5069044;28;20090;-68
2022/12/31 13:10:30;;;;;;;2.15;0.70;;;13.30;99.90;;;;;;5069146;28;20049;-67
2022/12/31 13:13:14;;;;;;;2.75;1.20;;;13.30;99.90;;;;;;5060947;28;20048;-67
2022/12/31 13:16:01;;;;;;;2.60;1.08;;;13.20;99.90;;;;;;5069267;28;20044;-68
2022/12/31 13:18:47;;;;;;;2.40;1.23;;;13.10;99.90;;;;;;5068737;28;20043;-68
2022/12/31 13:21:40;;;;;;;3.72;1.60;;;13.00;99.90;;;;;;5069203;28;20384;-68
2022/12/31 13:24:21;;;;;;;;;;;13.00;99.90;;;;;;5066490;28;20116;-68
2022/12/31 13:27:20;;;;;;;2.92;1.20;;;13.00;99.90;;;;;;5070499;28;19920;-67
2022/12/31 13:29:47;;;;;;;3.95;1.30;;;12.90;99.90;;;;;;5056114;28;20469;-67
2022/12/31 13:32:18;;;;;;;4.00;1.52;;;12.90;99.90;;;;;;5072483;28;20075;-69
2022/12/31 13:34:48;;;;;;;3.60;1.98;;;12.90;99.90;;;;;;5072310;28;20040;-68
2022/12/31 13:37:29;;;;;;;4.07;1.80;;;12.90;99.90;;;;;;5055324;28;20043;-68
2022/12/31 13:40:25;;;;;;;4.00;1.48;;;12.80;99.90;;;;;;5055791;28;20085;-68
2022/12/31 13:43:01;;;;;;;7.38;1.63;;;12.90;99.90;;;;;;5071764;28;20064;-67